sensor_id;sensor_type;location;lat;lon;timestamp;P1;durP1;ratioP1;P2;durP2;ratioP2
46282;SDS011;32017;43.700;11.820;2023-08-20T00:01:56;3.75;;;3.55;;
46282;SDS011;32017;43.700;11.820;2023-08-20T00:04:18;3.70;;;3.58;;
46282;SDS011;32017;43.700;11.820;2023-08-20T00:06:39;3.50;;;2.75;;
46282;SDS011;32017;43.700;11.820;2023-08-20T00:08:59;3.60;;;3.30;;
46282;SDS011;32017;43.700;11.820;2023-08-20T00:11:19;5.70;;;3.13;;
46282;SDS011;32017;43.700;11.820;2023-08-20T00:13:39;3.78;;;3.58;;
46282;SDS011;32017;43.700;11.820;2023-08-20T00:16:00;2.63;;;2.53;;
46282;SDS011;32017;43.700;11.820;2023-08-20T00:18:21;3.17;;;3.08;;
46282;SDS011;32017;43.700;11.820;2023-08-20T00:20:42;2.60;;;2.40;;
46282;SDS011;32017;43.700;11.820;2023-08-20T00:23:04;3.95;;;3.75;;
46282;SDS011;32017;43.700;11.820;2023-08-20T00:25:25;4.03;;;3.72;;
46282;SDS011;32017;43.700;11.820;2023-08-20T00:27:45;3.90;;;3.80;;
46282;SDS011;32017;43.700;11.820;2023-08-20T00:30:05;4.10;;;3.28;;
46282;SDS011;32017;43.700;11.820;2023-08-20T00:32:27;3.55;;;2.92;;
46282;SDS011;32017;43.700;11.820;2023-08-20T00:34:48;4.10;;;3.90;;
46282;SDS011;32017;43.700;11.820;2023-08-20T00:37:08;3.25;;;3.05;;
46282;SDS011;32017;43.700;11.820;2023-08-20T00:39:28;3.17;;;3.03;;
46282;SDS011;32017;43.700;11.820;2023-08-20T00:41:48;3.00;;;2.90;;
46282;SDS011;32017;43.700;11.820;2023-08-20T00:44:08;3.40;;;3.20;;
46282;SDS011;32017;43.700;11.820;2023-08-20T00:46:29;3.70;;;3.50;;
46282;SDS011;32017;43.700;11.820;2023-08-20T00:48:50;3.63;;;3.40;;
46282;SDS011;32017;43.700;11.820;2023-08-20T00:51:10;3.75;;;2.97;;
46282;SDS011;32017;43.700;11.820;2023-08-20T00:53:30;3.00;;;2.90;;
46282;SDS011;32017;43.700;11.820;2023-08-20T00:55:49;4.40;;;3.17;;
46282;SDS011;32017;43.700;11.820;2023-08-20T00:58:09;3.20;;;3.10;;
46282;SDS011;32017;43.700;11.820;2023-08-20T01:00:30;3.63;;;3.22;;
46282;SDS011;32017;43.700;11.820;2023-08-20T01:02:51;3.30;;;3.00;;
46282;SDS011;32017;43.700;11.820;2023-08-20T01:05:11;3.35;;;3.15;;
46282;SDS011;32017;43.700;11.820;2023-08-20T01:10:56;3.28;;;3.08;;
46282;SDS011;32017;43.700;11.820;2023-08-20T01:13:08;2.20;;;2.08;;
46282;SDS011;32017;43.700;11.820;2023-08-20T01:15:29;2.67;;;2.58;;
46282;SDS011;32017;43.700;11.820;2023-08-20T01:17:49;2.90;;;2.65;;
46282;SDS011;32017;43.700;11.820;2023-08-20T01:20:10;1.90;;;1.90;;
46282;SDS011;32017;43.700;11.820;2023-08-20T01:25:34;2.75;;;2.65;;
46282;SDS011;32017;43.700;11.820;2023-08-20T01:30:24;2.83;;;2.65;;
46282;SDS011;32017;43.700;11.820;2023-08-20T01:32:46;3.13;;;2.92;;
46282;SDS011;32017;43.700;11.820;2023-08-20T01:35:12;3.33;;;3.05;;
46282;SDS011;32017;43.700;11.820;2023-08-20T01:37:33;3.80;;;3.50;;
46282;SDS011;32017;43.700;11.820;2023-08-20T01:39:53;3.42;;;3.17;;
46282;SDS011;32017;43.700;11.820;2023-08-20T01:42:13;2.95;;;2.85;;
46282;SDS011;32017;43.700;11.820;2023-08-20T01:44:33;2.70;;;2.50;;
46282;SDS011;32017;43.700;11.820;2023-08-20T01:46:52;4.93;;;3.30;;
46282;SDS011;32017;43.700;11.820;2023-08-20T01:49:13;2.60;;;2.50;;
46282;SDS011;32017;43.700;11.820;2023-08-20T01:51:32;3.47;;;3.38;;
46282;SDS011;32017;43.700;11.820;2023-08-20T01:53:53;3.25;;;3.05;;
46282;SDS011;32017;43.700;11.820;2023-08-20T01:56:13;3.58;;;3.33;;
46282;SDS011;32017;43.700;11.820;2023-08-20T01:58:33;3.75;;;2.90;;
46282;SDS011;32017;43.700;11.820;2023-08-20T02:00:53;2.03;;;1.92;;
46282;SDS011;32017;43.700;11.820;2023-08-20T02:03:13;2.40;;;2.30;;
46282;SDS011;32017;43.700;11.820;2023-08-20T02:05:33;2.65;;;2.50;;
46282;SDS011;32017;43.700;11.820;2023-08-20T02:07:54;1.70;;;1.70;;
46282;SDS011;32017;43.700;11.820;2023-08-20T02:10:14;2.17;;;2.00;;
46282;SDS011;32017;43.700;11.820;2023-08-20T02:12:34;2.28;;;2.08;;
46282;SDS011;32017;43.700;11.820;2023-08-20T02:14:54;2.67;;;1.88;;
46282;SDS011;32017;43.700;11.820;2023-08-20T02:17:14;1.48;;;1.48;;
46282;SDS011;32017;43.700;11.820;2023-08-20T02:19:36;2.30;;;2.20;;
46282;SDS011;32017;43.700;11.820;2023-08-20T02:21:56;2.53;;;2.42;;
46282;SDS011;32017;43.700;11.820;2023-08-20T02:24:16;2.17;;;2.08;;
46282;SDS011;32017;43.700;11.820;2023-08-20T02:26:36;3.25;;;2.95;;
46282;SDS011;32017;43.700;11.820;2023-08-20T02:28:57;3.78;;;3.42;;
46282;SDS011;32017;43.700;11.820;2023-08-20T02:31:17;3.67;;;3.58;;
46282;SDS011;32017;43.700;11.820;2023-08-20T02:33:37;3.50;;;3.20;;
46282;SDS011;32017;43.700;11.820;2023-08-20T02:36:01;2.80;;;2.60;;
46282;SDS011;32017;43.700;11.820;2023-08-20T02:38:22;1.90;;;1.80;;
46282;SDS011;32017;43.700;11.820;2023-08-20T02:40:41;2.75;;;2.50;;
46282;SDS011;32017;43.700;11.820;2023-08-20T02:43:02;2.65;;;2.58;;
46282;SDS011;32017;43.700;11.820;2023-08-20T02:45:22;2.78;;;2.58;;
46282;SDS011;32017;43.700;11.820;2023-08-20T02:47:42;2.42;;;2.42;;
46282;SDS011;32017;43.700;11.820;2023-08-20T02:50:02;2.05;;;1.90;;
46282;SDS011;32017;43.700;11.820;2023-08-20T02:52:23;2.35;;;2.25;;
46282;SDS011;32017;43.700;11.820;2023-08-20T02:54:43;5.75;;;2.50;;
46282;SDS011;32017;43.700;11.820;2023-08-20T02:57:03;2.38;;;2.08;;
46282;SDS011;32017;43.700;11.820;2023-08-20T02:59:24;2.35;;;2.25;;
46282;SDS011;32017;43.700;11.820;2023-08-20T03:01:44;2.78;;;2.35;;
46282;SDS011;32017;43.700;11.820;2023-08-20T03:04:04;2.40;;;2.30;;
46282;SDS011;32017;43.700;11.820;2023-08-20T03:06:25;2.60;;;2.50;;
46282;SDS011;32017;43.700;11.820;2023-08-20T03:08:45;2.17;;;2.00;;
46282;SDS011;32017;43.700;11.820;2023-08-20T03:11:05;2.20;;;2.10;;
46282;SDS011;32017;43.700;11.820;2023-08-20T03:13:26;1.83;;;1.83;;
46282;SDS011;32017;43.700;11.820;2023-08-20T03:15:46;2.67;;;2.58;;
46282;SDS011;32017;43.700;11.820;2023-08-20T03:18:06;2.38;;;2.28;;
46282;SDS011;32017;43.700;11.820;2023-08-20T03:20:26;1.90;;;1.88;;
46282;SDS011;32017;43.700;11.820;2023-08-20T03:22:47;2.03;;;1.92;;
46282;SDS011;32017;43.700;11.820;2023-08-20T03:25:08;1.83;;;1.80;;
46282;SDS011;32017;43.700;11.820;2023-08-20T03:27:28;2.65;;;2.55;;
46282;SDS011;32017;43.700;11.820;2023-08-20T03:29:48;2.80;;;1.90;;
46282;SDS011;32017;43.700;11.820;2023-08-20T03:32:08;1.95;;;1.83;;
46282;SDS011;32017;43.700;11.820;2023-08-20T03:34:29;2.05;;;1.95;;
46282;SDS011;32017;43.700;11.820;2023-08-20T03:36:49;2.55;;;2.55;;
46282;SDS011;32017;43.700;11.820;2023-08-20T03:39:09;2.42;;;2.33;;
46282;SDS011;32017;43.700;11.820;2023-08-20T03:41:29;1.70;;;1.70;;
46282;SDS011;32017;43.700;11.820;2023-08-20T03:43:49;2.15;;;2.13;;
46282;SDS011;32017;43.700;11.820;2023-08-20T03:46:09;3.83;;;2.20;;
46282;SDS011;32017;43.700;11.820;2023-08-20T03:48:29;1.65;;;1.65;;
46282;SDS011;32017;43.700;11.820;2023-08-20T03:50:50;2.20;;;2.10;;
46282;SDS011;32017;43.700;11.820;2023-08-20T03:53:10;1.83;;;1.73;;
46282;SDS011;32017;43.700;11.820;2023-08-20T03:55:30;1.95;;;1.85;;
46282;SDS011;32017;43.700;11.820;2023-08-20T03:57:50;2.22;;;2.22;;
46282;SDS011;32017;43.700;11.820;2023-08-20T04:00:10;1.85;;;1.75;;
46282;SDS011;32017;43.700;11.820;2023-08-20T04:02:31;1.95;;;1.95;;
46282;SDS011;32017;43.700;11.820;2023-08-20T04:04:51;2.70;;;2.63;;
46282;SDS011;32017;43.700;11.820;2023-08-20T04:07:11;2.90;;;2.40;;
46282;SDS011;32017;43.700;11.820;2023-08-20T04:09:34;1.85;;;1.85;;
46282;SDS011;32017;43.700;11.820;2023-08-20T04:11:55;2.58;;;1.98;;
46282;SDS011;32017;43.700;11.820;2023-08-20T04:14:15;2.38;;;2.20;;
46282;SDS011;32017;43.700;11.820;2023-08-20T04:16:35;2.30;;;2.20;;
46282;SDS011;32017;43.700;11.820;2023-08-20T04:18:55;2.38;;;2.17;;
46282;SDS011;32017;43.700;11.820;2023-08-20T04:21:15;1.98;;;1.98;;
46282;SDS011;32017;43.700;11.820;2023-08-20T04:23:35;3.08;;;2.88;;
46282;SDS011;32017;43.700;11.820;2023-08-20T04:25:55;2.30;;;2.20;;
46282;SDS011;32017;43.700;11.820;2023-08-20T04:28:15;2.40;;;2.30;;
46282;SDS011;32017;43.700;11.820;2023-08-20T04:30:35;1.80;;;1.80;;
46282;SDS011;32017;43.700;11.820;2023-08-20T04:32:55;1.98;;;1.92;;
46282;SDS011;32017;43.700;11.820;2023-08-20T04:35:15;2.72;;;2.53;;
46282;SDS011;32017;43.700;11.820;2023-08-20T04:37:35;2.05;;;2.05;;
46282;SDS011;32017;43.700;11.820;2023-08-20T04:39:56;2.75;;;2.55;;
46282;SDS011;32017;43.700;11.820;2023-08-20T04:42:16;2.85;;;2.65;;
46282;SDS011;32017;43.700;11.820;2023-08-20T04:44:35;2.17;;;2.17;;
46282;SDS011;32017;43.700;11.820;2023-08-20T04:46:55;2.20;;;2.10;;
46282;SDS011;32017;43.700;11.820;2023-08-20T04:49:15;2.28;;;2.25;;
46282;SDS011;32017;43.700;11.820;2023-08-20T04:51:36;2.55;;;1.67;;
46282;SDS011;32017;43.700;11.820;2023-08-20T04:53:56;2.50;;;2.17;;
46282;SDS011;32017;43.700;11.820;2023-08-20T04:56:15;3.13;;;2.92;;
46282;SDS011;32017;43.700;11.820;2023-08-20T04:58:36;2.88;;;2.78;;
46282;SDS011;32017;43.700;11.820;2023-08-20T05:00:56;2.67;;;2.58;;
46282;SDS011;32017;43.700;11.820;2023-08-20T05:03:16;2.60;;;2.50;;
46282;SDS011;32017;43.700;11.820;2023-08-20T05:05:37;3.03;;;2.80;;
46282;SDS011;32017;43.700;11.820;2023-08-20T05:07:57;2.90;;;2.80;;
46282;SDS011;32017;43.700;11.820;2023-08-20T05:10:17;2.78;;;2.58;;
46282;SDS011;32017;43.700;11.820;2023-08-20T05:12:36;2.20;;;2.20;;
46282;SDS011;32017;43.700;11.820;2023-08-20T05:14:57;2.65;;;2.45;;
46282;SDS011;32017;43.700;11.820;2023-08-20T05:17:17;2.22;;;2.13;;
46282;SDS011;32017;43.700;11.820;2023-08-20T05:19:37;3.75;;;3.42;;
46282;SDS011;32017;43.700;11.820;2023-08-20T05:21:57;2.28;;;2.17;;
46282;SDS011;32017;43.700;11.820;2023-08-20T05:24:19;3.08;;;2.90;;
46282;SDS011;32017;43.700;11.820;2023-08-20T05:26:39;2.28;;;2.28;;
46282;SDS011;32017;43.700;11.820;2023-08-20T05:28:59;2.28;;;2.17;;
46282;SDS011;32017;43.700;11.820;2023-08-20T05:31:19;2.78;;;2.67;;
46282;SDS011;32017;43.700;11.820;2023-08-20T05:33:39;2.13;;;2.03;;
46282;SDS011;32017;43.700;11.820;2023-08-20T05:35:59;2.30;;;2.30;;
46282;SDS011;32017;43.700;11.820;2023-08-20T05:38:19;2.47;;;2.35;;
46282;SDS011;32017;43.700;11.820;2023-08-20T05:40:39;2.28;;;2.17;;
46282;SDS011;32017;43.700;11.820;2023-08-20T05:42:59;2.08;;;1.88;;
46282;SDS011;32017;43.700;11.820;2023-08-20T05:45:19;2.92;;;2.72;;
46282;SDS011;32017;43.700;11.820;2023-08-20T05:47:39;2.50;;;2.30;;
46282;SDS011;32017;43.700;11.820;2023-08-20T05:49:59;2.60;;;2.50;;
46282;SDS011;32017;43.700;11.820;2023-08-20T05:52:19;2.25;;;2.25;;
46282;SDS011;32017;43.700;11.820;2023-08-20T05:54:39;3.88;;;2.80;;
46282;SDS011;32017;43.700;11.820;2023-08-20T05:56:59;2.40;;;2.38;;
46282;SDS011;32017;43.700;11.820;2023-08-20T05:59:21;2.20;;;2.13;;
46282;SDS011;32017;43.700;11.820;2023-08-20T06:01:42;2.55;;;2.45;;
46282;SDS011;32017;43.700;11.820;2023-08-20T06:04:02;6.13;;;2.55;;
46282;SDS011;32017;43.700;11.820;2023-08-20T06:06:22;2.65;;;2.28;;
46282;SDS011;32017;43.700;11.820;2023-08-20T06:08:42;2.15;;;2.15;;
46282;SDS011;32017;43.700;11.820;2023-08-20T06:11:19;2.78;;;2.78;;
46282;SDS011;32017;43.700;11.820;2023-08-20T06:13:40;2.25;;;2.03;;
46282;SDS011;32017;43.700;11.820;2023-08-20T06:16:01;2.83;;;2.58;;
46282;SDS011;32017;43.700;11.820;2023-08-20T06:18:21;2.10;;;2.00;;
46282;SDS011;32017;43.700;11.820;2023-08-20T06:20:41;3.28;;;2.78;;
46282;SDS011;32017;43.700;11.820;2023-08-20T06:23:01;2.38;;;2.17;;
46282;SDS011;32017;43.700;11.820;2023-08-20T06:25:21;3.10;;;1.75;;
46282;SDS011;32017;43.700;11.820;2023-08-20T06:27:42;2.78;;;2.55;;
46282;SDS011;32017;43.700;11.820;2023-08-20T06:30:02;4.00;;;2.63;;
46282;SDS011;32017;43.700;11.820;2023-08-20T06:32:25;2.92;;;2.72;;
46282;SDS011;32017;43.700;11.820;2023-08-20T06:34:45;2.88;;;2.78;;
46282;SDS011;32017;43.700;11.820;2023-08-20T06:37:05;1.92;;;1.92;;
46282;SDS011;32017;43.700;11.820;2023-08-20T06:39:25;3.03;;;2.78;;
46282;SDS011;32017;43.700;11.820;2023-08-20T06:41:46;2.38;;;2.17;;
46282;SDS011;32017;43.700;11.820;2023-08-20T06:44:06;2.17;;;1.85;;
46282;SDS011;32017;43.700;11.820;2023-08-20T06:46:26;2.25;;;2.15;;
46282;SDS011;32017;43.700;11.820;2023-08-20T06:48:46;2.30;;;2.20;;
46282;SDS011;32017;43.700;11.820;2023-08-20T06:51:13;3.60;;;2.35;;
46282;SDS011;32017;43.700;11.820;2023-08-20T06:53:35;2.63;;;2.53;;
46282;SDS011;32017;43.700;11.820;2023-08-20T06:55:55;2.63;;;2.50;;
46282;SDS011;32017;43.700;11.820;2023-08-20T06:58:15;2.17;;;2.08;;
46282;SDS011;32017;43.700;11.820;2023-08-20T07:00:34;1.92;;;1.92;;
46282;SDS011;32017;43.700;11.820;2023-08-20T07:02:54;2.30;;;2.15;;
46282;SDS011;32017;43.700;11.820;2023-08-20T07:05:14;2.40;;;2.17;;
46282;SDS011;32017;43.700;11.820;2023-08-20T07:07:35;1.92;;;1.83;;
46282;SDS011;32017;43.700;11.820;2023-08-20T07:09:55;1.75;;;1.65;;
46282;SDS011;32017;43.700;11.820;2023-08-20T07:12:15;2.38;;;2.03;;
46282;SDS011;32017;43.700;11.820;2023-08-20T07:14:35;2.63;;;1.70;;
46282;SDS011;32017;43.700;11.820;2023-08-20T07:16:56;2.17;;;1.42;;
46282;SDS011;32017;43.700;11.820;2023-08-20T07:19:15;3.28;;;1.58;;
46282;SDS011;32017;43.700;11.820;2023-08-20T07:21:35;1.88;;;1.40;;
46282;SDS011;32017;43.700;11.820;2023-08-20T07:23:55;1.52;;;1.38;;
46282;SDS011;32017;43.700;11.820;2023-08-20T07:26:16;2.05;;;1.35;;
46282;SDS011;32017;43.700;11.820;2023-08-20T07:28:36;2.03;;;1.88;;
46282;SDS011;32017;43.700;11.820;2023-08-20T07:31:15;2.80;;;1.45;;
46282;SDS011;32017;43.700;11.820;2023-08-20T07:33:35;1.13;;;1.05;;
46282;SDS011;32017;43.700;11.820;2023-08-20T07:35:55;4.20;;;1.40;;
46282;SDS011;32017;43.700;11.820;2023-08-20T07:38:15;1.23;;;1.23;;
46282;SDS011;32017;43.700;11.820;2023-08-20T07:40:35;1.30;;;1.30;;
46282;SDS011;32017;43.700;11.820;2023-08-20T07:42:55;1.27;;;1.20;;
46282;SDS011;32017;43.700;11.820;2023-08-20T07:45:16;2.45;;;1.38;;
46282;SDS011;32017;43.700;11.820;2023-08-20T07:47:36;1.60;;;1.50;;
46282;SDS011;32017;43.700;11.820;2023-08-20T07:49:57;1.20;;;1.20;;
46282;SDS011;32017;43.700;11.820;2023-08-20T07:52:17;1.42;;;1.42;;
46282;SDS011;32017;43.700;11.820;2023-08-20T07:54:37;1.95;;;1.20;;
46282;SDS011;32017;43.700;11.820;2023-08-20T07:56:57;3.63;;;1.50;;
46282;SDS011;32017;43.700;11.820;2023-08-20T07:59:17;1.70;;;1.60;;
46282;SDS011;32017;43.700;11.820;2023-08-20T08:01:37;1.95;;;1.85;;
46282;SDS011;32017;43.700;11.820;2023-08-20T08:03:57;1.45;;;1.45;;
46282;SDS011;32017;43.700;11.820;2023-08-20T08:06:17;1.40;;;1.30;;
46282;SDS011;32017;43.700;11.820;2023-08-20T08:08:41;1.15;;;1.13;;
46282;SDS011;32017;43.700;11.820;2023-08-20T08:11:03;2.97;;;1.88;;
46282;SDS011;32017;43.700;11.820;2023-08-20T08:13:23;1.35;;;1.35;;
46282;SDS011;32017;43.700;11.820;2023-08-20T08:15:44;1.25;;;1.20;;
46282;SDS011;32017;43.700;11.820;2023-08-20T08:18:03;1.45;;;1.45;;
46282;SDS011;32017;43.700;11.820;2023-08-20T08:20:24;3.47;;;1.40;;
46282;SDS011;32017;43.700;11.820;2023-08-20T08:22:44;3.28;;;1.50;;
46282;SDS011;32017;43.700;11.820;2023-08-20T08:25:04;1.80;;;1.73;;
46282;SDS011;32017;43.700;11.820;2023-08-20T08:27:24;1.98;;;1.40;;
46282;SDS011;32017;43.700;11.820;2023-08-20T08:29:44;1.15;;;1.15;;
46282;SDS011;32017;43.700;11.820;2023-08-20T08:32:04;2.50;;;2.08;;
46282;SDS011;32017;43.700;11.820;2023-08-20T08:34:24;1.42;;;1.33;;
46282;SDS011;32017;43.700;11.820;2023-08-20T08:36:44;1.88;;;1.27;;
46282;SDS011;32017;43.700;11.820;2023-08-20T08:39:04;1.50;;;1.40;;
46282;SDS011;32017;43.700;11.820;2023-08-20T08:41:25;1.50;;;1.40;;
46282;SDS011;32017;43.700;11.820;2023-08-20T08:43:47;2.97;;;1.20;;
46282;SDS011;32017;43.700;11.820;2023-08-20T08:46:11;2.00;;;1.20;;
46282;SDS011;32017;43.700;11.820;2023-08-20T08:48:36;1.40;;;1.40;;
46282;SDS011;32017;43.700;11.820;2023-08-20T08:50:58;1.67;;;1.40;;
46282;SDS011;32017;43.700;11.820;2023-08-20T08:53:20;2.42;;;1.30;;
46282;SDS011;32017;43.700;11.820;2023-08-20T08:55:42;1.42;;;1.33;;
46282;SDS011;32017;43.700;11.820;2023-08-20T08:58:03;2.45;;;1.40;;
46282;SDS011;32017;43.700;11.820;2023-08-20T09:00:23;1.40;;;1.33;;
46282;SDS011;32017;43.700;11.820;2023-08-20T09:02:42;1.30;;;1.20;;
46282;SDS011;32017;43.700;11.820;2023-08-20T09:05:04;1.10;;;1.10;;
46282;SDS011;32017;43.700;11.820;2023-08-20T09:07:25;1.55;;;1.10;;
46282;SDS011;32017;43.700;11.820;2023-08-20T09:09:45;2.03;;;1.20;;
46282;SDS011;32017;43.700;11.820;2023-08-20T09:12:12;1.10;;;1.00;;
46282;SDS011;32017;43.700;11.820;2023-08-20T09:14:34;1.25;;;1.20;;
46282;SDS011;32017;43.700;11.820;2023-08-20T09:16:57;0.98;;;0.98;;
46282;SDS011;32017;43.700;11.820;2023-08-20T09:19:20;1.30;;;1.30;;
46282;SDS011;32017;43.700;11.820;2023-08-20T09:21:40;0.90;;;0.90;;
46282;SDS011;32017;43.700;11.820;2023-08-20T09:24:07;2.25;;;0.93;;
46282;SDS011;32017;43.700;11.820;2023-08-20T09:26:27;3.58;;;1.20;;
46282;SDS011;32017;43.700;11.820;2023-08-20T09:28:54;1.08;;;1.08;;
46282;SDS011;32017;43.700;11.820;2023-08-20T09:31:17;1.00;;;1.00;;
46282;SDS011;32017;43.700;11.820;2023-08-20T09:33:48;0.98;;;0.93;;
46282;SDS011;32017;43.700;11.820;2023-08-20T09:36:12;1.27;;;1.10;;
46282;SDS011;32017;43.700;11.820;2023-08-20T09:38:36;1.20;;;1.20;;
46282;SDS011;32017;43.700;11.820;2023-08-20T09:40:59;1.00;;;1.00;;
46282;SDS011;32017;43.700;11.820;2023-08-20T09:43:19;1.20;;;1.20;;
46282;SDS011;32017;43.700;11.820;2023-08-20T09:45:42;1.10;;;1.10;;
46282;SDS011;32017;43.700;11.820;2023-08-20T09:48:03;1.02;;;1.00;;
46282;SDS011;32017;43.700;11.820;2023-08-20T09:50:28;1.08;;;1.08;;
46282;SDS011;32017;43.700;11.820;2023-08-20T09:52:57;1.77;;;1.00;;
46282;SDS011;32017;43.700;11.820;2023-08-20T09:55:21;2.35;;;1.30;;
46282;SDS011;32017;43.700;11.820;2023-08-20T09:57:45;1.00;;;1.00;;
46282;SDS011;32017;43.700;11.820;2023-08-20T10:00:07;4.78;;;1.20;;
46282;SDS011;32017;43.700;11.820;2023-08-20T10:02:29;1.20;;;1.20;;
46282;SDS011;32017;43.700;11.820;2023-08-20T10:04:50;2.53;;;1.00;;
46282;SDS011;32017;43.700;11.820;2023-08-20T10:07:12;1.58;;;1.00;;
46282;SDS011;32017;43.700;11.820;2023-08-20T10:09:33;1.33;;;1.30;;
46282;SDS011;32017;43.700;11.820;2023-08-20T10:11:53;1.10;;;1.00;;
46282;SDS011;32017;43.700;11.820;2023-08-20T10:14:14;1.02;;;1.02;;
46282;SDS011;32017;43.700;11.820;2023-08-20T10:16:35;0.93;;;0.93;;
46282;SDS011;32017;43.700;11.820;2023-08-20T10:18:55;1.10;;;1.10;;
46282;SDS011;32017;43.700;11.820;2023-08-20T10:21:23;1.10;;;1.00;;
46282;SDS011;32017;43.700;11.820;2023-08-20T10:23:48;1.88;;;1.20;;
46282;SDS011;32017;43.700;11.820;2023-08-20T10:26:09;1.00;;;1.00;;
46282;SDS011;32017;43.700;11.820;2023-08-20T10:28:30;1.20;;;1.00;;
46282;SDS011;32017;43.700;11.820;2023-08-20T10:31:07;1.35;;;1.00;;
46282;SDS011;32017;43.700;11.820;2023-08-20T10:33:34;0.90;;;0.90;;
46282;SDS011;32017;43.700;11.820;2023-08-20T10:35:55;1.10;;;1.00;;
46282;SDS011;32017;43.700;11.820;2023-08-20T10:38:15;1.38;;;0.90;;
46282;SDS011;32017;43.700;11.820;2023-08-20T10:40:57;1.00;;;1.00;;
46282;SDS011;32017;43.700;11.820;2023-08-20T10:45:46;0.95;;;0.95;;
46282;SDS011;32017;43.700;11.820;2023-08-20T10:48:28;0.90;;;0.90;;
46282;SDS011;32017;43.700;11.820;2023-08-20T10:50:50;1.63;;;0.90;;
46282;SDS011;32017;43.700;11.820;2023-08-20T10:53:11;2.28;;;1.25;;
46282;SDS011;32017;43.700;11.820;2023-08-20T10:55:31;0.82;;;0.82;;
46282;SDS011;32017;43.700;11.820;2023-08-20T10:57:54;2.10;;;0.80;;
46282;SDS011;32017;43.700;11.820;2023-08-20T11:00:16;1.00;;;1.00;;
46282;SDS011;32017;43.700;11.820;2023-08-20T11:02:40;0.90;;;0.90;;
46282;SDS011;32017;43.700;11.820;2023-08-20T11:05:02;0.90;;;0.90;;
46282;SDS011;32017;43.700;11.820;2023-08-20T11:07:23;1.02;;;0.90;;
46282;SDS011;32017;43.700;11.820;2023-08-20T11:09:48;0.90;;;0.90;;
46282;SDS011;32017;43.700;11.820;2023-08-20T11:12:10;2.90;;;1.00;;
46282;SDS011;32017;43.700;11.820;2023-08-20T11:14:31;1.00;;;1.00;;
46282;SDS011;32017;43.700;11.820;2023-08-20T11:16:51;1.03;;;0.90;;
46282;SDS011;32017;43.700;11.820;2023-08-20T11:19:11;1.83;;;0.93;;
46282;SDS011;32017;43.700;11.820;2023-08-20T11:21:39;0.90;;;0.90;;
46282;SDS011;32017;43.700;11.820;2023-08-20T11:24:03;3.55;;;0.80;;
46282;SDS011;32017;43.700;11.820;2023-08-20T11:26:24;1.75;;;0.80;;
46282;SDS011;32017;43.700;11.820;2023-08-20T11:28:47;1.00;;;1.00;;
46282;SDS011;32017;43.700;11.820;2023-08-20T11:31:07;0.85;;;0.85;;
46282;SDS011;32017;43.700;11.820;2023-08-20T11:33:29;1.33;;;0.90;;
46282;SDS011;32017;43.700;11.820;2023-08-20T11:35:49;1.30;;;1.03;;
46282;SDS011;32017;43.700;11.820;2023-08-20T11:38:10;1.00;;;1.00;;
46282;SDS011;32017;43.700;11.820;2023-08-20T11:40:30;0.80;;;0.80;;
46282;SDS011;32017;43.700;11.820;2023-08-20T11:42:50;1.25;;;1.00;;
46282;SDS011;32017;43.700;11.820;2023-08-20T11:45:10;1.38;;;0.90;;
46282;SDS011;32017;43.700;11.820;2023-08-20T11:47:37;0.90;;;0.90;;
46282;SDS011;32017;43.700;11.820;2023-08-20T11:50:03;1.10;;;1.02;;
46282;SDS011;32017;43.700;11.820;2023-08-20T11:52:23;0.90;;;0.90;;
46282;SDS011;32017;43.700;11.820;2023-08-20T11:54:44;1.25;;;1.00;;
46282;SDS011;32017;43.700;11.820;2023-08-20T11:57:04;1.45;;;1.20;;
46282;SDS011;32017;43.700;11.820;2023-08-20T11:59:26;1.85;;;1.00;;
46282;SDS011;32017;43.700;11.820;2023-08-20T12:01:54;1.75;;;1.05;;
46282;SDS011;32017;43.700;11.820;2023-08-20T12:04:16;1.00;;;1.00;;
46282;SDS011;32017;43.700;11.820;2023-08-20T12:06:36;2.60;;;0.90;;
46282;SDS011;32017;43.700;11.820;2023-08-20T12:08:57;2.90;;;0.90;;
46282;SDS011;32017;43.700;11.820;2023-08-20T12:11:17;3.58;;;0.90;;
46282;SDS011;32017;43.700;11.820;2023-08-20T12:13:37;2.35;;;1.00;;
46282;SDS011;32017;43.700;11.820;2023-08-20T12:15:57;1.02;;;0.90;;
46282;SDS011;32017;43.700;11.820;2023-08-20T12:18:20;2.67;;;0.90;;
46282;SDS011;32017;43.700;11.820;2023-08-20T12:20:40;1.02;;;0.90;;
46282;SDS011;32017;43.700;11.820;2023-08-20T12:23:00;1.00;;;1.00;;
46282;SDS011;32017;43.700;11.820;2023-08-20T12:25:22;6.47;;;0.90;;
46282;SDS011;32017;43.700;11.820;2023-08-20T12:27:42;0.80;;;0.80;;
46282;SDS011;32017;43.700;11.820;2023-08-20T12:30:03;1.00;;;1.00;;
46282;SDS011;32017;43.700;11.820;2023-08-20T12:34:44;1.10;;;1.00;;
46282;SDS011;32017;43.700;11.820;2023-08-20T12:37:04;1.20;;;1.10;;
46282;SDS011;32017;43.700;11.820;2023-08-20T12:39:24;2.00;;;1.33;;
46282;SDS011;32017;43.700;11.820;2023-08-20T12:41:45;2.63;;;1.07;;
46282;SDS011;32017;43.700;11.820;2023-08-20T12:44:05;1.73;;;1.20;;
46282;SDS011;32017;43.700;11.820;2023-08-20T12:46:25;1.33;;;1.10;;
46282;SDS011;32017;43.700;11.820;2023-08-20T12:48:45;1.65;;;1.00;;
46282;SDS011;32017;43.700;11.820;2023-08-20T12:51:05;2.05;;;1.05;;
46282;SDS011;32017;43.700;11.820;2023-08-20T12:53:25;1.80;;;1.70;;
46282;SDS011;32017;43.700;11.820;2023-08-20T12:55:45;1.58;;;1.48;;
46282;SDS011;32017;43.700;11.820;2023-08-20T12:58:05;1.30;;;1.20;;
46282;SDS011;32017;43.700;11.820;2023-08-20T13:00:26;1.10;;;1.10;;
46282;SDS011;32017;43.700;11.820;2023-08-20T13:02:46;1.55;;;1.33;;
46282;SDS011;32017;43.700;11.820;2023-08-20T13:05:07;1.20;;;1.10;;
46282;SDS011;32017;43.700;11.820;2023-08-20T13:07:28;1.90;;;1.50;;
46282;SDS011;32017;43.700;11.820;2023-08-20T13:09:50;1.35;;;1.25;;
46282;SDS011;32017;43.700;11.820;2023-08-20T13:12:10;1.42;;;1.38;;
46282;SDS011;32017;43.700;11.820;2023-08-20T13:14:31;1.10;;;1.10;;
46282;SDS011;32017;43.700;11.820;2023-08-20T13:16:52;1.48;;;1.20;;
46282;SDS011;32017;43.700;11.820;2023-08-20T13:19:13;1.27;;;1.17;;
46282;SDS011;32017;43.700;11.820;2023-08-20T13:21:33;1.60;;;0.87;;
46282;SDS011;32017;43.700;11.820;2023-08-20T13:23:54;1.55;;;0.95;;
46282;SDS011;32017;43.700;11.820;2023-08-20T13:26:15;2.20;;;0.90;;
46282;SDS011;32017;43.700;11.820;2023-08-20T13:28:36;3.13;;;1.00;;
46282;SDS011;32017;43.700;11.820;2023-08-20T13:30:56;1.03;;;1.03;;
46282;SDS011;32017;43.700;11.820;2023-08-20T13:33:16;1.90;;;1.77;;
46282;SDS011;32017;43.700;11.820;2023-08-20T13:35:36;1.17;;;1.10;;
46282;SDS011;32017;43.700;11.820;2023-08-20T13:37:56;1.10;;;1.00;;
46282;SDS011;32017;43.700;11.820;2023-08-20T13:40:16;1.00;;;1.00;;
46282;SDS011;32017;43.700;11.820;2023-08-20T13:42:37;1.13;;;1.13;;
46282;SDS011;32017;43.700;11.820;2023-08-20T13:44:57;2.17;;;0.90;;
46282;SDS011;32017;43.700;11.820;2023-08-20T13:47:17;0.90;;;0.90;;
46282;SDS011;32017;43.700;11.820;2023-08-20T13:49:37;1.48;;;1.00;;
46282;SDS011;32017;43.700;11.820;2023-08-20T13:51:57;0.88;;;0.85;;
46282;SDS011;32017;43.700;11.820;2023-08-20T13:54:17;2.30;;;1.00;;
46282;SDS011;32017;43.700;11.820;2023-08-20T13:56:37;3.83;;;0.80;;
46282;SDS011;32017;43.700;11.820;2023-08-20T13:58:57;0.80;;;0.80;;
46282;SDS011;32017;43.700;11.820;2023-08-20T14:01:17;4.40;;;1.10;;
46282;SDS011;32017;43.700;11.820;2023-08-20T14:03:37;0.80;;;0.80;;
46282;SDS011;32017;43.700;11.820;2023-08-20T14:05:57;1.05;;;0.90;;
46282;SDS011;32017;43.700;11.820;2023-08-20T14:08:18;1.92;;;0.85;;
46282;SDS011;32017;43.700;11.820;2023-08-20T14:10:38;1.10;;;1.00;;